Terminal Aerodrome Forecast
Issued by NWS Blacksburg, VA

Current Version | Previous Version | Text Only | Print | Product List | Glossary Off
Versions: 1 2 3 4 5 6 7 8 9 10 11 12 13 14 15 16 17 18

000
FTUS41 KRNK 052011 AAA
TAFBLF
TAF AMD
KBLF 052011Z 0520/0618 02005KT P6SM SCT025
     FM060000 VRB04KT P6SM BKN030
     FM060400 13006KT 6SM -RA OVC035
     FM060900 13009KT 4SM -RA OVC015
     FM061200 13010G17KT 2SM -RA BR OVC007=

USA.gov is the U.S. government's official web portal to all federal, state and local government web resources and services.